Time;durP1;ratioP1;P1;durP2;ratioP2;P2;SDS_P1;SDS_P2;PMS_P1;PMS_P2;Temp;Humidity;BMP_temperature;BMP_pressure;BME280_temperature;BME280_humidity;BME280_pressure;Samples;Min_cycle;Max_cycle;Signal;HPM_P1;HPM_P2
2023/12/15 00:01:19;;;;;;;30.05;16.65;;;5.00;99.90;;;;;;5074688;28;20039;-49
2023/12/15 00:03:45;;;;;;;33.72;17.67;;;5.00;99.90;;;;;;5074257;28;20112;-47
2023/12/15 00:06:11;;;;;;;33.97;17.15;;;5.40;99.90;;;;;;5074651;28;20044;-47
2023/12/15 00:08:37;;;;;;;35.55;18.30;;;5.20;99.90;;;;;;5074611;28;20040;-47
2023/12/15 00:11:03;;;;;;;35.20;17.73;;;5.20;99.90;;;;;;5073032;28;20400;-49
2023/12/15 00:13:29;;;;;;;34.70;18.08;;;5.30;99.90;;;;;;5074161;28;20488;-48
2023/12/15 00:15:54;;;;;;;35.00;18.95;;;5.70;99.90;;;;;;5074557;28;20045;-46
2023/12/15 00:18:21;;;;;;;33.42;18.42;;;5.10;99.90;;;;;;5074293;28;20044;-50
2023/12/15 00:20:47;;;;;;;35.25;18.83;;;5.80;99.90;;;;;;5072850;28;20404;-47
2023/12/15 00:23:13;;;;;;;33.90;17.92;;;5.90;99.90;;;;;;5073887;28;20041;-46
2023/12/15 00:25:38;;;;;;;34.97;18.40;;;5.10;99.90;;;;;;5074224;28;20032;-46
2023/12/15 00:28:04;;;;;;;35.28;18.48;;;5.60;99.90;;;;;;5072839;28;20059;-46
2023/12/15 00:30:30;;;;;;;34.53;18.40;;;5.10;99.90;;;;;;5073983;28;20500;-46
2023/12/15 00:32:56;;;;;;;37.78;20.17;;;5.90;99.90;;;;;;5073948;28;20040;-46
2023/12/15 00:35:22;;;;;;;35.42;18.60;;;5.20;99.90;;;;;;5073953;28;20037;-46
2023/12/15 00:37:47;;;;;;;41.45;20.45;;;6.00;99.90;;;;;;5073712;28;20057;-46
2023/12/15 00:40:13;;;;;;;41.38;20.50;;;5.20;99.90;;;;;;5073964;28;20249;-46
2023/12/15 00:42:39;;;;;;;37.45;19.02;;;5.70;99.90;;;;;;5072345;28;20545;-46
2023/12/15 00:45:05;;;;;;;37.17;19.48;;;5.20;99.90;;;;;;5073907;28;20032;-47
2023/12/15 00:47:31;;;;;;;36.55;20.23;;;6.00;99.90;;;;;;5073827;28;20036;-46
2023/12/15 00:49:59;;;;;;;39.75;19.85;;;5.40;99.90;;;;;;5073506;28;20530;-48
2023/12/15 00:52:24;;;;;;;41.78;20.05;;;6.00;99.90;;;;;;5073510;28;20040;-47
2023/12/15 00:54:50;;;;;;;40.40;20.23;;;5.40;99.90;;;;;;5073518;28;20036;-46
2023/12/15 00:57:16;;;;;;;43.40;20.75;;;5.70;99.90;;;;;;5073573;28;20033;-47
2023/12/15 00:59:43;;;;;;;38.67;19.92;;;5.90;99.90;;;;;;5073683;28;20473;-46
2023/12/15 01:02:08;;;;;;;42.65;20.83;;;5.40;99.90;;;;;;5073421;28;20035;-47
2023/12/15 01:04:34;;;;;;;42.22;21.80;;;5.60;99.90;;;;;;5073297;28;20045;-48
2023/12/15 01:07:00;;;;;;;40.97;22.13;;;5.80;99.90;;;;;;5073161;28;20044;-47
2023/12/15 01:09:26;;;;;;;51.40;23.23;;;5.30;99.90;;;;;;5073132;28;20048;-46
2023/12/15 01:11:52;;;;;;;42.55;22.38;;;5.90;99.90;;;;;;5073349;28;20402;-49
2023/12/15 01:14:17;;;;;;;47.78;22.17;;;6.10;99.90;;;;;;5072479;28;20044;-47
2023/12/15 01:16:48;;;;;;;46.42;22.92;;;6.20;99.90;;;;;;5072941;28;20447;-50
2023/12/15 01:19:15;;;;;;;52.80;24.45;;;5.30;99.90;;;;;;5073083;28;20408;-49
2023/12/15 01:21:40;;;;;;;47.72;24.00;;;5.30;99.90;;;;;;5073095;28;20087;-50
2023/12/15 01:24:06;;;;;;;48.63;23.75;;;5.40;99.90;;;;;;5071958;28;20510;-49
2023/12/15 01:26:32;;;;;;;55.58;25.23;;;6.30;99.90;;;;;;5073041;28;20496;-49
2023/12/15 01:28:57;;;;;;;52.95;23.65;;;5.50;99.90;;;;;;5073141;28;20400;-51
2023/12/15 01:31:23;;;;;;;58.55;24.77;;;6.30;99.90;;;;;;5071824;28;20127;-46
2023/12/15 01:33:49;;;;;;;56.55;24.52;;;6.10;99.90;;;;;;5072784;28;20045;-46
2023/12/15 01:36:16;;;;;;;53.10;25.25;;;5.40;99.90;;;;;;5072590;28;20098;-49
2023/12/15 01:38:42;;;;;;;55.78;24.15;;;5.80;99.90;;;;;;5072710;28;20045;-49
2023/12/15 01:41:07;;;;;;;53.28;23.42;;;6.40;99.90;;;;;;5072654;28;20378;-47
2023/12/15 01:43:33;;;;;;;55.30;25.67;;;6.10;99.90;;;;;;5072792;28;20078;-50
2023/12/15 01:45:59;;;;;;;52.38;24.50;;;5.50;99.90;;;;;;5072759;28;20439;-49
2023/12/15 01:48:25;;;;;;;53.97;23.52;;;6.40;99.90;;;;;;5072422;28;20120;-51
2023/12/15 01:50:51;;;;;;;55.13;24.60;;;5.60;99.90;;;;;;5072399;28;20048;-51
2023/12/15 01:53:16;;;;;;;57.55;24.88;;;5.40;99.90;;;;;;5072316;28;20039;-47
2023/12/15 01:55:42;;;;;;;60.75;26.73;;;5.60;99.90;;;;;;5072282;28;20044;-50
2023/12/15 01:58:10;;;;;;;56.65;24.63;;;6.10;99.90;;;;;;5072556;28;20044;-49
2023/12/15 02:00:36;;;;;;;63.33;25.92;;;5.80;99.90;;;;;;5072562;28;20040;-48
2023/12/15 02:03:02;;;;;;;62.03;24.20;;;5.50;99.90;;;;;;5072373;28;20382;-46
2023/12/15 02:05:28;;;;;;;64.60;26.17;;;5.80;99.90;;;;;;5072227;28;20090;-49
2023/12/15 02:07:53;;;;;;;62.70;26.25;;;5.50;99.90;;;;;;5072126;28;20408;-48
2023/12/15 02:10:19;;;;;;;61.25;27.33;;;5.90;99.90;;;;;;5072030;28;20588;-49
2023/12/15 02:12:45;;;;;;;59.20;24.55;;;6.70;99.90;;;;;;5072321;28;20120;-48
2023/12/15 02:15:11;;;;;;;62.78;25.45;;;6.00;99.90;;;;;;5072390;28;20048;-47
2023/12/15 02:17:37;;;;;;;64.85;27.20;;;6.60;99.90;;;;;;5072074;28;20603;-47
2023/12/15 02:20:04;;;;;;;62.90;26.80;;;5.40;99.90;;;;;;5072448;28;20036;-47
2023/12/15 02:22:30;;;;;;;70.13;26.05;;;6.50;99.90;;;;;;5072359;28;20048;-49
2023/12/15 02:24:55;;;;;;;64.07;27.40;;;5.80;99.90;;;;;;5072261;28;20036;-47
2023/12/15 02:27:21;;;;;;;67.05;27.25;;;5.80;99.90;;;;;;5072017;28;20039;-46
2023/12/15 02:29:47;;;;;;;74.85;28.25;;;5.40;99.90;;;;;;5072027;28;20048;-47
2023/12/15 02:32:12;;;;;;;74.88;28.05;;;6.50;99.90;;;;;;5070637;28;20048;-46
2023/12/15 02:34:38;;;;;;;56.25;24.95;;;5.40;99.90;;;;;;5070975;28;20044;-46
2023/12/15 02:37:04;;;;;;;69.32;27.38;;;6.50;99.90;;;;;;5071778;28;20476;-47
2023/12/15 02:39:29;;;;;;;66.55;25.63;;;6.50;99.90;;;;;;5072062;28;20468;-46
2023/12/15 02:41:55;;;;;;;67.13;26.00;;;6.50;99.90;;;;;;5071946;28;20041;-49
2023/12/15 02:44:20;;;;;;;62.83;25.45;;;5.50;99.90;;;;;;5072077;28;20048;-50
2023/12/15 02:46:46;;;;;;;62.35;24.85;;;5.30;99.90;;;;;;5071746;28;20044;-47
2023/12/15 02:49:12;;;;;;;74.88;26.60;;;5.70;99.90;;;;;;5070420;28;20078;-45
2023/12/15 02:51:38;;;;;;;61.67;25.58;;;6.60;99.90;;;;;;5070312;28;20087;-46
2023/12/15 02:54:03;;;;;;;62.70;24.48;;;5.30;99.90;;;;;;5072155;28;20045;-46
2023/12/15 02:56:29;;;;;;;56.42;25.48;;;5.80;99.90;;;;;;5071662;28;20044;-46
2023/12/15 02:58:55;;;;;;;58.95;24.42;;;5.40;99.90;;;;;;5071736;28;20392;-48
2023/12/15 03:01:20;;;;;;;56.78;25.15;;;5.40;99.90;;;;;;5071686;28;20072;-46
2023/12/15 03:03:46;;;;;;;58.03;23.67;;;5.20;99.90;;;;;;5071684;28;20043;-46
2023/12/15 03:06:12;;;;;;;63.20;23.73;;;5.80;99.90;;;;;;5071517;28;20120;-46
2023/12/15 03:08:38;;;;;;;55.25;23.95;;;5.10;99.90;;;;;;5070584;28;20040;-46
2023/12/15 03:11:04;;;;;;;52.92;23.58;;;6.20;99.90;;;;;;5071558;28;20044;-47
2023/12/15 03:13:29;;;;;;;52.25;23.10;;;5.00;99.90;;;;;;5071563;28;20044;-47
2023/12/15 03:16:09;;;;;;;55.60;23.27;;;6.10;99.90;;;;;;5071580;28;20041;-46
2023/12/15 03:18:35;;;;;;;54.50;23.85;;;4.90;99.90;;;;;;5071436;28;20041;-46
2023/12/15 03:21:01;;;;;;;51.80;23.27;;;4.80;99.90;;;;;;5071466;28;20044;-45
2023/12/15 03:23:26;;;;;;;53.40;23.65;;;5.10;99.90;;;;;;5071681;28;20385;-50
2023/12/15 03:25:52;;;;;;;52.45;23.38;;;4.80;99.90;;;;;;5071508;28;20055;-50
2023/12/15 03:28:18;;;;;;;47.80;22.42;;;5.20;99.90;;;;;;5071306;28;20044;-50
2023/12/15 03:30:43;;;;;;;52.63;24.15;;;5.80;99.90;;;;;;5070051;28;20102;-47
2023/12/15 03:33:09;;;;;;;49.22;22.13;;;5.80;99.90;;;;;;5071403;28;20090;-50
2023/12/15 03:35:35;;;;;;;50.10;21.90;;;5.00;99.90;;;;;;5070275;28;20060;-48
2023/12/15 03:38:03;;;;;;;52.40;23.33;;;5.80;99.90;;;;;;5071128;28;20059;-47
2023/12/15 03:40:29;;;;;;;44.15;21.75;;;5.80;99.90;;;;;;5075176;28;20386;-49
2023/12/15 03:42:55;;;;;;;46.90;22.15;;;5.70;99.90;;;;;;5074961;28;20048;-48
2023/12/15 03:45:20;;;;;;;58.08;22.55;;;5.20;99.90;;;;;;5074760;28;20461;-49
2023/12/15 03:47:46;;;;;;;47.97;22.23;;;5.70;99.90;;;;;;5074620;28;20048;-47
2023/12/15 03:50:12;;;;;;;51.88;23.00;;;5.20;99.90;;;;;;5075030;28;20131;-47
2023/12/15 03:52:37;;;;;;;49.55;22.73;;;5.70;99.90;;;;;;5074908;28;20133;-47
2023/12/15 03:55:03;;;;;;;46.92;22.35;;;5.70;99.90;;;;;;5073421;28;20207;-46
2023/12/15 03:57:29;;;;;;;45.00;23.25;;;5.70;99.90;;;;;;5074697;28;20048;-47
2023/12/15 03:59:55;;;;;;;49.83;22.65;;;5.80;99.90;;;;;;5074842;28;20397;-49
2023/12/15 04:02:20;;;;;;;45.42;22.08;;;5.20;99.90;;;;;;5073378;28;20040;-48
2023/12/15 04:04:46;;;;;;;45.22;21.20;;;5.50;99.90;;;;;;5074387;28;20127;-47
2023/12/15 04:07:12;;;;;;;43.42;22.50;;;5.60;99.90;;;;;;5074621;28;20045;-48
2023/12/15 04:09:38;;;;;;;45.47;21.50;;;5.60;99.90;;;;;;5074659;28;20384;-49
2023/12/15 04:12:04;;;;;;;40.55;19.55;;;4.70;99.90;;;;;;5073128;28;20062;-48
2023/12/15 04:14:32;;;;;;;44.08;19.70;;;4.50;99.90;;;;;;5074265;28;20041;-48
2023/12/15 04:16:58;;;;;;;42.47;19.10;;;4.70;99.90;;;;;;5074229;28;20101;-50
2023/12/15 04:19:23;;;;;;;43.47;19.15;;;4.60;99.90;;;;;;5073991;28;20048;-46
2023/12/15 04:21:49;;;;;;;42.20;17.73;;;5.50;99.90;;;;;;5074067;28;20032;-46
2023/12/15 04:24:15;;;;;;;38.97;16.98;;;5.50;99.90;;;;;;5074406;28;20075;-46
2023/12/15 04:26:40;;;;;;;34.03;16.90;;;5.30;99.90;;;;;;5074372;28;20036;-47
2023/12/15 04:29:06;;;;;;;39.08;17.52;;;4.50;99.90;;;;;;5074048;28;20068;-46
2023/12/15 04:31:32;;;;;;;34.88;15.93;;;4.40;99.90;;;;;;5074324;28;20037;-50
2023/12/15 04:33:57;;;;;;;38.15;16.33;;;4.50;99.90;;;;;;5074151;28;20048;-46
2023/12/15 04:36:23;;;;;;;35.25;17.33;;;4.50;99.90;;;;;;5074014;28;20036;-49
2023/12/15 04:38:50;;;;;;;41.50;16.88;;;5.60;99.90;;;;;;5073975;28;20094;-49
2023/12/15 04:41:23;;;;;;;37.83;16.20;;;5.00;99.90;;;;;;5074088;28;20036;-47
2023/12/15 04:43:49;;;;;;;38.28;16.42;;;4.80;99.90;;;;;;5073818;28;20067;-46
2023/12/15 04:46:25;;;;;;;38.97;16.23;;;5.60;99.90;;;;;;5072305;28;20041;-49
2023/12/15 04:48:53;;;;;;;41.28;15.10;;;5.50;99.90;;;;;;5073613;28;20048;-48
2023/12/15 04:51:18;;;;;;;37.17;15.27;;;4.50;99.90;;;;;;5073519;28;20480;-48
2023/12/15 04:53:45;;;;;;;37.67;14.90;;;5.10;99.90;;;;;;5073837;28;20044;-49
2023/12/15 04:56:11;;;;;;;36.05;14.82;;;4.60;99.90;;;;;;5073385;28;20040;-47
2023/12/15 04:58:37;;;;;;;32.63;13.65;;;5.30;99.90;;;;;;5073389;28;20067;-48
2023/12/15 05:01:03;;;;;;;28.88;13.85;;;5.30;99.90;;;;;;5073325;28;20040;-45
2023/12/15 05:03:29;;;;;;;33.53;14.02;;;5.40;99.90;;;;;;5073700;28;20090;-46
2023/12/15 05:05:55;;;;;;;37.92;14.43;;;4.30;99.90;;;;;;5073527;28;20115;-47
2023/12/15 05:08:20;;;;;;;31.80;13.82;;;4.50;99.90;;;;;;5073576;28;20128;-48
2023/12/15 05:10:46;;;;;;;34.97;12.93;;;5.00;99.90;;;;;;5073156;28;20459;-49
2023/12/15 05:13:12;;;;;;;32.70;13.65;;;5.20;99.90;;;;;;5071639;28;20388;-50
2023/12/15 05:15:37;;;;;;;35.75;13.77;;;5.20;99.90;;;;;;5072819;28;20064;-46
2023/12/15 05:18:04;;;;;;;26.23;12.02;;;4.70;99.90;;;;;;5073043;28;20080;-46
2023/12/15 05:20:30;;;;;;;33.53;13.52;;;4.60;99.90;;;;;;5073041;28;20064;-46
2023/12/15 05:22:56;;;;;;;29.05;11.00;;;4.30;99.90;;;;;;5072904;28;20040;-46
2023/12/15 05:25:22;;;;;;;33.03;12.40;;;5.30;99.90;;;;;;5073010;28;20059;-47
2023/12/15 05:27:47;;;;;;;31.83;13.30;;;4.50;99.90;;;;;;5072847;28;20120;-46
2023/12/15 05:30:13;;;;;;;33.15;11.38;;;5.30;99.90;;;;;;5054858;28;20048;-46
2023/12/15 05:32:40;;;;;;;29.92;11.52;;;5.20;99.90;;;;;;5072866;28;20431;-48
2023/12/15 05:35:06;;;;;;;35.10;11.80;;;4.40;99.90;;;;;;5072787;28;20044;-50
2023/12/15 05:37:32;;;;;;;39.78;12.88;;;5.10;99.90;;;;;;5072571;28;20105;-47
2023/12/15 05:39:57;;;;;;;34.92;12.00;;;5.10;99.90;;;;;;5072608;28;20569;-49
2023/12/15 05:42:25;;;;;;;31.67;11.43;;;4.20;99.90;;;;;;5072808;28;20044;-49
2023/12/15 05:44:51;;;;;;;31.70;10.23;;;4.40;99.90;;;;;;5072499;28;20481;-49
2023/12/15 05:47:17;;;;;;;31.55;10.73;;;4.20;99.90;;;;;;5072631;28;20040;-47
2023/12/15 05:49:43;;;;;;;26.15;9.13;;;5.30;99.90;;;;;;5072389;28;20038;-46
2023/12/15 05:52:14;;;;;;;34.83;10.45;;;4.90;99.90;;;;;;5072372;28;20052;-49
2023/12/15 05:54:40;;;;;;;31.92;10.30;;;4.50;99.90;;;;;;5072680;28;20040;-47
2023/12/15 05:57:06;;;;;;;32.15;10.30;;;5.00;99.90;;;;;;5072399;28;20041;-46
2023/12/15 05:59:31;;;;;;;26.38;10.38;;;4.30;99.90;;;;;;5072335;28;20070;-46
2023/12/15 06:01:57;;;;;;;29.52;9.95;;;5.30;99.90;;;;;;5072008;28;20139;-46
2023/12/15 06:04:23;;;;;;;38.65;11.60;;;4.60;99.90;;;;;;5072555;28;20443;-45
2023/12/15 06:06:48;;;;;;;29.40;10.48;;;5.10;99.90;;;;;;5071117;28;20041;-48
2023/12/15 06:09:14;;;;;;;29.63;10.27;;;4.40;99.90;;;;;;5071273;28;20052;-46
2023/12/15 06:11:41;;;;;;;35.65;13.02;;;5.30;99.90;;;;;;5072340;28;20404;-48
2023/12/15 06:14:07;;;;;;;27.25;10.95;;;5.20;99.90;;;;;;5072371;28;20094;-46
2023/12/15 06:16:33;;;;;;;32.88;11.18;;;5.30;99.90;;;;;;5072430;28;20051;-46
2023/12/15 06:18:58;;;;;;;38.38;11.38;;;4.20;99.90;;;;;;5072291;28;20032;-48
2023/12/15 06:21:26;;;;;;;33.30;11.35;;;5.30;99.90;;;;;;5072180;28;20047;-47
2023/12/15 06:23:52;;;;;;;28.67;10.15;;;4.50;99.90;;;;;;5072148;28;20036;-47
2023/12/15 06:26:22;;;;;;;32.20;9.20;;;4.30;99.90;;;;;;5071882;28;20033;-46
2023/12/15 06:28:49;;;;;;;31.63;9.73;;;4.40;99.90;;;;;;5071990;28;20048;-47
2023/12/15 06:31:15;;;;;;;26.42;8.73;;;5.00;99.90;;;;;;5070868;28;20369;-46
2023/12/15 06:33:41;;;;;;;33.78;9.15;;;5.30;99.90;;;;;;5072213;28;20127;-45
2023/12/15 06:36:08;;;;;;;28.60;8.93;;;4.30;99.90;;;;;;5072047;28;20123;-46
2023/12/15 06:38:39;;;;;;;34.58;8.32;;;4.20;99.90;;;;;;5071618;28;20068;-49
2023/12/15 06:41:05;;;;;;;31.63;9.00;;;4.30;99.90;;;;;;5072065;28;20093;-47
2023/12/15 06:43:32;;;;;;;39.17;9.70;;;5.20;99.90;;;;;;5071861;28;20039;-46
2023/12/15 06:45:57;;;;;;;30.42;8.80;;;5.10;99.90;;;;;;5071963;28;20543;-48
2023/12/15 06:48:23;;;;;;;34.50;9.85;;;5.20;99.90;;;;;;5071724;28;20076;-46
2023/12/15 06:50:49;;;;;;;25.55;8.00;;;4.20;99.90;;;;;;5072031;28;20150;-46
2023/12/15 06:53:17;;;;;;;36.28;8.90;;;4.70;99.90;;;;;;5071646;28;20044;-46
2023/12/15 06:55:43;;;;;;;27.10;7.75;;;4.10;99.90;;;;;;5071631;28;20404;-46
2023/12/15 06:58:08;;;;;;;28.67;7.47;;;4.10;99.90;;;;;;5071508;28;20033;-46
2023/12/15 07:00:34;;;;;;;29.05;7.72;;;5.10;99.90;;;;;;5071826;28;20040;-49
2023/12/15 07:03:00;;;;;;;23.65;7.25;;;5.00;99.90;;;;;;5071900;28;20035;-49
2023/12/15 07:05:25;;;;;;;33.08;8.25;;;4.80;99.90;;;;;;5071816;28;20449;-48
2023/12/15 07:07:51;;;;;;;29.25;7.43;;;4.20;99.90;;;;;;5071587;28;20476;-46
2023/12/15 07:10:17;;;;;;;24.10;5.70;;;4.60;99.90;;;;;;5071831;28;20437;-50
2023/12/15 07:12:43;;;;;;;19.38;5.15;;;5.00;99.90;;;;;;5072448;28;20520;-48
2023/12/15 07:15:09;;;;;;;24.33;6.22;;;4.50;99.90;;;;;;5075535;28;20075;-48
2023/12/15 07:17:34;;;;;;;28.58;6.15;;;4.40;99.90;;;;;;5075330;28;20111;-50
2023/12/15 07:20:00;;;;;;;23.52;5.75;;;5.10;99.90;;;;;;5075262;28;20048;-50
2023/12/15 07:22:26;;;;;;;25.40;5.63;;;4.40;99.90;;;;;;5075068;28;20437;-48
2023/12/15 07:24:51;;;;;;;21.20;5.60;;;4.50;99.90;;;;;;5073818;28;20094;-48
2023/12/15 07:27:17;;;;;;;28.75;5.07;;;4.10;99.90;;;;;;5075339;28;20036;-51
2023/12/15 07:29:43;;;;;;;22.55;5.28;;;4.40;99.90;;;;;;5073698;28;20052;-47
2023/12/15 07:32:08;;;;;;;18.02;4.80;;;4.60;99.90;;;;;;5074841;28;20052;-46
2023/12/15 07:34:34;;;;;;;26.40;5.85;;;4.60;99.90;;;;;;5074979;28;20046;-46
2023/12/15 07:37:00;;;;;;;15.55;5.28;;;4.20;99.90;;;;;;5074873;28;20060;-46
2023/12/15 07:39:25;;;;;;;21.00;4.75;;;5.20;99.90;;;;;;5074569;28;20057;-46
2023/12/15 07:41:51;;;;;;;30.25;5.32;;;4.20;99.90;;;;;;5074895;28;20040;-46
2023/12/15 07:44:17;;;;;;;21.45;5.20;;;4.50;99.90;;;;;;5074710;28;20033;-46
2023/12/15 07:46:43;;;;;;;18.30;4.78;;;4.20;99.90;;;;;;5074911;28;20059;-46
2023/12/15 07:49:10;;;;;;;27.48;4.80;;;4.20;99.90;;;;;;5074833;28;20052;-46
2023/12/15 07:51:36;;;;;;;21.33;4.13;;;5.10;99.90;;;;;;5074936;28;20032;-47
2023/12/15 07:54:01;;;;;;;18.58;4.40;;;4.20;99.90;;;;;;5073330;28;20043;-46
2023/12/15 07:56:28;;;;;;;26.63;4.85;;;5.30;99.90;;;;;;5074855;28;20045;-47
2023/12/15 07:58:55;;;;;;;26.42;5.90;;;5.20;99.90;;;;;;5074419;28;20057;-46
2023/12/15 08:01:22;;;;;;;21.88;4.32;;;4.30;99.90;;;;;;5073313;28;20103;-46
2023/12/15 08:03:50;;;;;;;19.52;3.72;;;4.50;99.90;;;;;;5074449;28;20139;-48
2023/12/15 08:06:16;;;;;;;18.67;4.40;;;4.90;99.90;;;;;;5074459;28;20040;-48
2023/12/15 08:08:43;;;;;;;31.50;4.75;;;4.40;99.90;;;;;;5074701;28;20049;-47
2023/12/15 08:11:13;;;;;;;17.75;4.55;;;4.60;99.90;;;;;;5074631;28;20051;-48
2023/12/15 08:13:40;;;;;;;30.55;5.18;;;4.70;99.90;;;;;;5074419;28;20492;-47
2023/12/15 08:16:07;;;;;;;21.13;5.07;;;5.40;99.90;;;;;;5074356;28;20123;-52
2023/12/15 08:18:33;;;;;;;18.80;4.25;;;4.40;99.90;;;;;;5074280;28;20163;-46
2023/12/15 08:20:59;;;;;;;20.20;5.07;;;4.40;99.90;;;;;;5074022;28;20050;-51
2023/12/15 08:23:25;;;;;;;23.38;4.55;;;4.50;99.90;;;;;;5074060;28;20035;-46
2023/12/15 08:25:51;;;;;;;17.85;3.97;;;5.30;99.90;;;;;;5074163;28;20126;-47
2023/12/15 08:28:19;;;;;;;18.20;4.78;;;4.50;99.90;;;;;;5073968;28;20440;-46
2023/12/15 08:30:45;;;;;;;15.88;3.63;;;4.50;99.90;;;;;;5072766;28;20044;-48
2023/12/15 08:33:11;;;;;;;21.42;5.97;;;4.80;99.90;;;;;;5074218;28;20047;-48
2023/12/15 08:35:37;;;;;;;23.60;6.03;;;4.90;99.90;;;;;;5073852;28;20036;-48
2023/12/15 08:38:03;;;;;;;24.35;4.80;;;4.60;99.90;;;;;;5073667;28;20059;-49
2023/12/15 08:40:29;;;;;;;23.00;3.63;;;5.50;99.90;;;;;;5074049;28;20123;-50
2023/12/15 08:42:54;;;;;;;26.42;4.88;;;4.80;99.90;;;;;;5073644;28;20044;-46
2023/12/15 08:45:20;;;;;;;17.25;4.60;;;4.70;99.90;;;;;;5073675;28;20048;-48
2023/12/15 08:47:46;;;;;;;22.42;3.97;;;4.60;99.90;;;;;;5072408;28;20040;-51
2023/12/15 08:50:12;;;;;;;24.15;4.60;;;5.60;99.90;;;;;;5073574;28;20465;-48
2023/12/15 08:52:38;;;;;;;25.90;4.60;;;5.60;99.90;;;;;;5073812;28;20108;-49
2023/12/15 08:55:04;;;;;;;24.17;4.50;;;5.50;99.90;;;;;;5073440;28;20416;-48
2023/12/15 08:57:30;;;;;;;23.88;4.60;;;5.40;99.90;;;;;;5072163;28;20052;-47
2023/12/15 08:59:56;;;;;;;26.85;4.20;;;4.90;99.90;;;;;;5073416;28;20052;-48
2023/12/15 09:02:21;;;;;;;15.40;4.07;;;5.30;99.90;;;;;;5073447;28;20036;-50
2023/12/15 09:04:47;;;;;;;21.77;4.82;;;4.70;99.90;;;;;;5073319;28;20038;-48
2023/12/15 09:07:13;;;;;;;32.55;4.45;;;5.00;99.90;;;;;;5072103;28;20078;-46
2023/12/15 09:09:39;;;;;;;21.75;4.55;;;5.60;99.90;;;;;;5073484;28;20452;-48
2023/12/15 09:12:06;;;;;;;23.38;4.68;;;5.70;99.90;;;;;;5073221;28;20045;-48
2023/12/15 09:14:32;;;;;;;24.77;5.22;;;5.70;99.90;;;;;;5073106;28;20040;-50
2023/12/15 09:17:00;;;;;;;23.60;4.10;;;5.70;99.90;;;;;;5073368;28;20040;-48
2023/12/15 09:19:26;;;;;;;23.00;4.88;;;5.00;99.90;;;;;;5073081;28;20115;-51
2023/12/15 09:21:53;;;;;;;18.88;4.10;;;4.80;99.90;;;;;;5072978;28;20138;-48
2023/12/15 09:24:18;;;;;;;18.10;5.40;;;5.70;99.90;;;;;;5072866;28;20040;-49
2023/12/15 09:26:47;;;;;;;23.65;5.03;;;5.00;99.90;;;;;;5073119;28;20043;-48
2023/12/15 09:29:14;;;;;;;17.80;4.60;;;5.70;99.90;;;;;;5072807;28;20107;-49
2023/12/15 09:31:41;;;;;;;20.75;5.13;;;5.30;99.90;;;;;;5072847;28;20051;-48
2023/12/15 09:34:07;;;;;;;20.27;4.65;;;5.20;99.90;;;;;;5073031;28;20044;-48
2023/12/15 09:36:34;;;;;;;22.30;4.55;;;5.80;99.90;;;;;;5072022;28;20067;-47
2023/12/15 09:39:00;;;;;;;25.75;5.05;;;5.80;99.90;;;;;;5072857;28;20040;-48
2023/12/15 09:41:28;;;;;;;20.83;4.88;;;5.50;99.90;;;;;;5072705;28;20044;-47
2023/12/15 09:43:54;;;;;;;26.80;5.15;;;5.90;99.90;;;;;;5071300;28;20048;-48
2023/12/15 09:46:21;;;;;;;20.88;4.70;;;5.70;99.90;;;;;;5072419;28;20032;-47
2023/12/15 09:48:48;;;;;;;26.50;5.20;;;5.40;99.90;;;;;;5071511;28;20392;-47
2023/12/15 09:51:28;;;;;;;20.30;4.65;;;6.00;99.90;;;;;;5072593;28;20452;-51
2023/12/15 09:53:53;;;;;;;30.08;5.60;;;6.10;99.90;;;;;;5072398;28;20040;-47
2023/12/15 09:56:19;;;;;;;31.58;4.88;;;6.00;99.90;;;;;;5072409;28;20047;-48
2023/12/15 09:58:46;;;;;;;23.98;5.53;;;5.60;99.90;;;;;;5072154;28;20080;-48
2023/12/15 10:01:12;;;;;;;30.25;5.53;;;5.90;99.90;;;;;;5072478;28;20115;-50
2023/12/15 10:03:38;;;;;;;22.15;5.35;;;6.20;99.90;;;;;;5072472;28;20184;-48
2023/12/15 10:06:05;;;;;;;29.75;7.05;;;6.50;99.90;;;;;;5072329;28;20071;-46
2023/12/15 10:08:44;;;;;;;24.65;4.78;;;5.80;99.90;;;;;;5072228;28;20032;-46
2023/12/15 10:11:10;;;;;;;24.13;4.85;;;6.40;99.90;;;;;;5072591;28;20133;-46
2023/12/15 10:13:39;;;;;;;25.48;5.38;;;6.60;99.90;;;;;;5072037;28;20045;-46
2023/12/15 10:16:05;;;;;;;27.02;6.53;;;5.70;99.90;;;;;;5072236;28;20461;-46
2023/12/15 10:18:30;;;;;;;31.13;5.90;;;6.00;99.90;;;;;;5072325;28;20362;-46
2023/12/15 10:20:57;;;;;;;28.23;5.10;;;6.70;99.90;;;;;;5072261;28;20074;-46
2023/12/15 10:23:27;;;;;;;22.38;4.60;;;6.30;99.90;;;;;;5070980;28;20068;-46
2023/12/15 10:25:53;;;;;;;30.30;7.32;;;6.00;99.90;;;;;;5071929;28;20054;-48
2023/12/15 10:28:20;;;;;;;30.60;6.22;;;6.50;99.90;;;;;;5071914;28;20063;-48
2023/12/15 10:30:48;;;;;;;25.83;5.00;;;6.00;99.90;;;;;;5072253;28;20102;-46
2023/12/15 10:33:16;;;;;;;22.50;4.93;;;6.10;99.90;;;;;;5072284;28;20049;-46
2023/12/15 10:35:45;;;;;;;23.25;5.78;;;6.70;99.90;;;;;;5071983;28;20044;-49
2023/12/15 10:38:11;;;;;;;19.83;5.30;;;6.60;99.90;;;;;;5071686;28;20547;-49
2023/12/15 10:40:37;;;;;;;30.60;6.35;;;6.20;99.90;;;;;;5071860;28;20036;-47
2023/12/15 10:43:04;;;;;;;25.73;5.95;;;7.00;99.90;;;;;;5071855;28;20107;-47
2023/12/15 10:45:32;;;;;;;32.78;5.82;;;7.10;99.90;;;;;;5070906;28;20357;-47
2023/12/15 10:48:00;;;;;;;32.85;5.38;;;6.30;99.90;;;;;;5074991;28;20102;-48
2023/12/15 10:50:27;;;;;;;26.85;6.05;;;6.30;99.90;;;;;;5074452;28;20538;-48
2023/12/15 10:52:55;;;;;;;36.88;6.70;;;7.10;99.90;;;;;;5076067;28;20056;-48
2023/12/15 10:55:25;;;;;;;31.17;6.38;;;6.50;99.90;;;;;;5075694;28;20048;-47
2023/12/15 10:57:51;;;;;;;30.20;6.50;;;6.60;99.90;;;;;;5074494;28;20037;-47
2023/12/15 11:00:19;;;;;;;31.63;6.18;;;6.60;99.90;;;;;;5075796;28;20625;-47
2023/12/15 11:02:47;;;;;;;30.73;7.90;;;6.60;99.90;;;;;;5075806;28;20106;-50
2023/12/15 11:05:13;;;;;;;31.73;5.95;;;6.60;99.90;;;;;;5075772;28;20033;-51
2023/12/15 11:07:40;;;;;;;30.50;5.68;;;7.30;99.90;;;;;;5074297;28;20089;-48
2023/12/15 11:10:09;;;;;;;32.50;7.05;;;7.50;99.90;;;;;;5075781;28;20051;-48
2023/12/15 11:12:39;;;;;;;33.80;6.05;;;7.20;99.90;;;;;;5075778;28;20051;-47
2023/12/15 11:15:10;;;;;;;28.20;6.05;;;7.70;99.90;;;;;;5075610;28;20036;-49
2023/12/15 11:17:46;;;;;;;29.88;6.78;;;7.90;99.90;;;;;;5075353;28;20052;-50
2023/12/15 11:20:32;;;;;;;35.60;6.10;;;7.70;99.90;;;;;;5075207;28;20378;-50
2023/12/15 11:23:07;;;;;;;25.33;6.95;;;7.70;99.90;;;;;;5075065;28;20045;-47
2023/12/15 11:25:39;;;;;;;32.70;5.80;;;7.30;99.90;;;;;;5075327;28;20037;-48
2023/12/15 11:28:11;;;;;;;31.10;6.55;;;8.00;99.90;;;;;;5075176;28;20083;-50
2023/12/15 11:30:54;;;;;;;34.80;6.70;;;7.80;99.90;;;;;;5074972;28;20484;-49
2023/12/15 11:33:32;;;;;;;32.70;6.65;;;8.10;99.90;;;;;;5075149;28;20040;-47
2023/12/15 11:35:59;;;;;;;39.08;7.43;;;8.10;99.90;;;;;;5075118;28;20048;-47
2023/12/15 11:38:26;;;;;;;31.52;6.70;;;7.80;99.90;;;;;;5074658;28;20139;-49
2023/12/15 11:40:53;;;;;;;40.08;6.13;;;8.10;99.90;;;;;;5074851;28;20048;-48
2023/12/15 11:43:19;;;;;;;34.33;6.78;;;7.80;99.90;;;;;;5075118;28;20401;-49
2023/12/15 11:45:49;;;;;;;34.33;9.05;;;7.60;99.90;;;;;;5074814;28;20047;-50
2023/12/15 11:48:14;;;;;;;50.88;7.82;;;7.70;99.90;;;;;;5075021;28;20043;-45
2023/12/15 11:50:43;;;;;;;33.67;7.80;;;8.30;99.90;;;;;;5074723;28;20040;-50
2023/12/15 11:53:09;;;;;;;28.15;5.93;;;8.10;99.90;;;;;;5074929;28;20507;-49
2023/12/15 11:55:36;;;;;;;39.22;6.28;;;7.90;99.90;;;;;;5074928;28;20051;-47
2023/12/15 11:58:02;;;;;;;37.22;7.05;;;8.20;99.90;;;;;;5073891;28;20040;-46
2023/12/15 12:00:30;;;;;;;37.67;5.95;;;8.30;99.90;;;;;;5074632;28;20420;-49
2023/12/15 12:02:56;;;;;;;32.53;6.90;;;7.90;99.90;;;;;;5074711;28;20036;-47
2023/12/15 12:05:22;;;;;;;31.15;5.60;;;8.40;99.90;;;;;;5074799;28;20033;-48
2023/12/15 12:07:48;;;;;;;40.67;7.13;;;8.00;99.90;;;;;;5074618;28;20036;-48
2023/12/15 12:10:14;;;;;;;35.40;6.63;;;8.50;99.90;;;;;;5074530;28;20041;-46
2023/12/15 12:12:40;;;;;;;35.22;7.32;;;8.50;99.90;;;;;;5074424;28;20039;-48
2023/12/15 12:15:09;;;;;;;46.70;7.90;;;8.40;99.90;;;;;;5074396;28;20037;-48
2023/12/15 12:17:37;;;;;;;31.08;6.10;;;7.90;99.90;;;;;;5073016;28;20052;-48
2023/12/15 12:20:07;;;;;;;33.20;6.82;;;8.40;99.90;;;;;;5072861;28;20119;-46
2023/12/15 12:22:33;;;;;;;34.70;7.22;;;8.30;99.90;;;;;;5074117;28;20079;-46
2023/12/15 12:24:59;;;;;;;32.97;6.28;;;8.30;99.90;;;;;;5072883;28;20048;-50
2023/12/15 12:27:35;;;;;;;41.72;8.57;;;7.90;99.90;;;;;;5074525;28;20032;-49
2023/12/15 12:30:01;;;;;;;40.58;7.65;;;8.20;99.90;;;;;;5073038;28;20435;-51
2023/12/15 12:32:26;;;;;;;35.28;6.93;;;8.30;99.90;;;;;;5074182;28;20602;-50
2023/12/15 12:34:53;;;;;;;29.58;5.43;;;8.00;99.90;;;;;;5073967;28;20111;-46
2023/12/15 12:37:18;;;;;;;29.88;5.47;;;8.00;99.90;;;;;;5072163;28;20122;-47